TimeAWST,TemperatureF,Dew PointF,Humidity,Sea Level PressureIn,VisibilityMPH,Wind Direction,Wind SpeedMPH,Gust SpeedMPH,PrecipitationIn,Events,Conditions,WindDirDegrees,DateUTC
12:00 AM,90,46,13,29.74,,WSW,12.7,,,,,240,2012-10-31 16:00:00
12:00 AM,89.6,46.4,22,29.80,-9999.0,WSW,12.7,-,N/A,,Unknown,240,2012-10-31 16:00:00
1:00 AM,89.6,44.6,21,29.77,-9999.0,WSW,11.5,-,N/A,,Unknown,240,2012-10-31 17:00:00
2:00 AM,90,45,12,29.73,,WSW,12.7,,,,,240,2012-10-31 18:00:00
3:00 AM,89,45,13,29.72,,WSW,11.5,,,,,240,2012-10-31 19:00:00
3:00 AM,89.6,44.6,21,29.77,-9999.0,WSW,11.5,-,N/A,,Unknown,240,2012-10-31 19:00:00
4:00 AM,87.8,46.4,24,29.80,-9999.0,West,6.9,-,N/A,,Unknown,260,2012-10-31 20:00:00
5:00 AM,85,45,15,29.78,,ESE,3.5,,,,,120,2012-10-31 21:00:00
5:00 AM,84.2,44.6,25,29.83,-9999.0,ESE,3.5,-,N/A,,Unknown,120,2012-10-31 21:00:00
6:00 AM,85,45,15,29.79,,Calm,Calm,,,,,,2012-10-31 22:00:00
6:00 AM,84.2,44.6,25,29.83,-9999.0,Calm,Calm,-,N/A,,Unknown,0,2012-10-31 22:00:00
7:00 AM,89.6,46.4,22,29.83,-9999.0,West,3.5,-,N/A,,Unknown,270,2012-10-31 23:00:00
8:00 AM,93,46,12,29.80,,SW,4.6,,,,,220,2012-11-01 00:00:00
8:00 AM,93.2,46.4,20,29.86,-9999.0,SW,4.6,-,N/A,,Unknown,220,2012-11-01 00:00:00
9:00 AM,96,46,10,29.80,,South,3.5,,,,,190,2012-11-01 01:00:00
9:00 AM,95.0,46.4,19,29.86,-9999.0,South,3.5,-,N/A,,Unknown,190,2012-11-01 01:00:00
10:00 AM,100.4,44.6,15,29.83,-9999.0,South,4.6,-,N/A,,Unknown,190,2012-11-01 02:00:00
11:00 AM,103,45,7,29.76,,SSW,6.9,,,,,210,2012-11-01 03:00:00
11:00 AM,102.2,44.6,14,29.80,-9999.0,SSW,6.9,-,N/A,,Unknown,210,2012-11-01 03:00:00
12:00 PM,102,44,7,29.73,,WNW,8.1,,,,,290,2012-11-01 04:00:00
12:00 PM,102.2,44.6,14,29.77,-9999.0,WNW,8.1,-,N/A,,Unknown,290,2012-11-01 04:00:00
1:00 PM,102.2,44.6,14,29.77,-9999.0,SW,9.2,-,N/A,,Unknown,230,2012-11-01 05:00:00
2:00 PM,103,45,7,29.70,,West,10.4,,,,,270,2012-11-01 06:00:00
2:00 PM,104.0,44.6,13,29.74,-9999.0,West,10.4,-,N/A,,Unknown,270,2012-11-01 06:00:00
3:00 PM,102,46,8,29.69,,West,10.4,,,,,270,2012-11-01 07:00:00
3:00 PM,102.2,46.4,15,29.74,-9999.0,West,10.4,-,N/A,,Unknown,270,2012-11-01 07:00:00
4:00 PM,102.2,44.6,14,29.74,-9999.0,South,6.9,-,N/A,,Unknown,190,2012-11-01 08:00:00
5:00 PM,101,45,8,29.69,,SSW,2.3,,,,,200,2012-11-01 09:00:00
5:00 PM,100.4,44.6,15,29.74,-9999.0,SSW,2.3,-,N/A,,Unknown,200,2012-11-01 09:00:00
6:00 PM,100,44,8,29.71,,West,11.5,,,,,260,2012-11-01 10:00:00
6:00 PM,100.4,44.6,15,29.77,-9999.0,West,11.5,-,N/A,,Unknown,260,2012-11-01 10:00:00
6:53 PM,96.8,46.4,18,29.80,-9999.0,WSW,24.2,-,N/A,,Unknown,240,2012-11-01 10:53:00
7:00 PM,95.0,48.2,20,29.80,-9999.0,SW,25.3,-,N/A,,Unknown,230,2012-11-01 11:00:00
7:06 PM,95.0,48.2,20,29.80,-9999.0,SW,23.0,34.5,N/A,,Unknown,220,2012-11-01 11:06:00
8:00 PM,94,48,13,29.77,,SW,8.1,,,,,220,2012-11-01 12:00:00
8:00 PM,95.0,48.2,20,29.83,-9999.0,SW,8.1,-,N/A,,Unknown,220,2012-11-01 12:00:00
9:00 PM,91,49,15,29.79,,South,20.7,,,,,180,2012-11-01 13:00:00
9:00 PM,91.4,48.2,23,29.83,-9999.0,South,20.7,-,N/A,,Unknown,180,2012-11-01 13:00:00
10:00 PM,89.6,50.0,26,29.86,-9999.0,SSE,16.1,-,N/A,,Unknown,160,2012-11-01 14:00:00
11:00 PM,89,50,17,29.78,,SSE,17.3,,,,,150,2012-11-01 15:00:00
11:00 PM,89.6,50.0,26,29.83,-9999.0,SSE,17.3,-,N/A,,Unknown,150,2012-11-01 15:00:00